Time;durP1;ratioP1;P1;durP2;ratioP2;P2;SDS_P1;SDS_P2;PMS_P1;PMS_P2;Temp;Humidity;BMP_temperature;BMP_pressure;BME280_temperature;BME280_humidity;BME280_pressure;Samples;Min_cycle;Max_cycle;Signal;HPM_P1;HPM_P2
2023/01/28 00:00:07;;;;;;;57.45;49.88;;;13.30;62.30;;;;;;4933566;28;92999;-56
2023/01/28 00:02:34;;;;;;;56.97;49.22;;;13.30;62.40;;;;;;4948307;28;90325;-58
2023/01/28 00:04:59;;;;;;;59.47;50.35;;;13.40;62.40;;;;;;4947710;28;91331;-59
2023/01/28 00:07:25;;;;;;;57.53;49.30;;;13.40;62.50;;;;;;4942161;28;90571;-58
2023/01/28 00:09:51;;;;;;;57.50;49.67;;;13.30;62.30;;;;;;4951554;28;90609;-58
2023/01/28 00:12:17;;;;;;;57.78;49.60;;;13.30;62.40;;;;;;4950394;28;90372;-58
2023/01/28 00:14:45;;;;;;;60.38;51.13;;;13.30;62.30;;;;;;4940404;28;92738;-59
2023/01/28 00:17:10;;;;;;;57.75;49.90;;;13.30;62.40;;;;;;4935617;28;95395;-55
2023/01/28 00:19:37;;;;;;;56.67;49.47;;;13.30;62.20;;;;;;4945496;28;93217;-57
2023/01/28 00:22:03;;;;;;;58.45;50.47;;;13.30;62.00;;;;;;4941871;28;90637;-54
2023/01/28 00:24:29;;;;;;;58.13;50.03;;;13.30;62.10;;;;;;4956505;28;91120;-58
2023/01/28 00:26:55;;;;;;;58.40;50.30;;;13.40;62.30;;;;;;4940584;28;93344;-57
2023/01/28 00:29:20;;;;;;;58.45;49.72;;;13.40;62.00;;;;;;4938864;28;89903;-58
2023/01/28 00:31:46;;;;;;;56.05;48.70;;;13.30;62.10;;;;;;4947768;28;90582;-58
2023/01/28 00:34:12;;;;;;;59.97;51.47;;;13.30;62.10;;;;;;4941097;28;91660;-58
2023/01/28 00:36:38;;;;;;;58.08;50.28;;;13.30;62.30;;;;;;4935819;28;94607;-57
2023/01/28 00:39:05;;;;;;;56.63;49.00;;;13.20;62.50;;;;;;4949823;28;94617;-56
2023/01/28 00:41:31;;;;;;;57.88;49.97;;;13.20;62.40;;;;;;4936376;28;93406;-59
2023/01/28 00:43:57;;;;;;;57.20;49.67;;;13.30;62.40;;;;;;4942495;28;90405;-56
2023/01/28 00:46:26;;;;;;;56.90;49.70;;;13.30;62.50;;;;;;4943230;28;92780;-59
2023/01/28 00:48:51;;;;;;;58.00;50.17;;;13.20;62.30;;;;;;4944422;28;94423;-60
2023/01/28 00:51:19;;;;;;;56.38;48.90;;;13.20;62.30;;;;;;4936041;28;93739;-57
2023/01/28 00:53:45;;;;;;;59.92;51.08;;;13.20;62.50;;;;;;4939383;28;91709;-50
2023/01/28 00:56:16;;;;;;;57.67;49.70;;;13.20;62.50;;;;;;4945437;28;91236;-59
2023/01/28 00:58:43;;;;;;;59.33;50.83;;;13.30;62.20;;;;;;4938142;28;95187;-59
2023/01/28 01:01:18;;;;;;;58.33;50.28;;;13.30;62.30;;;;;;4940584;28;92522;-55
2023/01/28 01:03:44;;;;;;;58.97;50.65;;;13.20;62.30;;;;;;4941038;28;94817;-59
2023/01/28 01:06:11;;;;;;;60.13;51.63;;;13.20;62.20;;;;;;4930677;28;93523;-58
2023/01/28 01:08:38;;;;;;;58.80;50.25;;;13.20;62.40;;;;;;4948514;28;90687;-54
2023/01/28 01:11:06;;;;;;;58.60;50.35;;;13.20;62.50;;;;;;4934189;28;91952;-57
2023/01/28 01:13:35;;;;;;;59.85;51.00;;;13.20;62.40;;;;;;4931489;28;90272;-54
2023/01/28 01:16:14;;;;;;;59.35;50.15;;;13.20;62.30;;;;;;4933188;28;94083;-59
2023/01/28 01:18:40;;;;;;;60.97;51.67;;;13.20;62.40;;;;;;4946862;28;90211;-59
2023/01/28 01:21:18;;;;;;;59.83;51.60;;;13.20;62.40;;;;;;4949297;28;90251;-58
2023/01/28 01:23:44;;;;;;;58.80;50.75;;;13.20;62.40;;;;;;4940687;28;93539;-59
2023/01/28 01:26:10;;;;;;;59.70;51.22;;;13.10;62.40;;;;;;4947114;28;95230;-59
2023/01/28 01:28:37;;;;;;;59.67;50.78;;;13.20;62.50;;;;;;4937196;28;93503;-51
2023/01/28 01:31:07;;;;;;;59.15;50.95;;;13.20;62.50;;;;;;4934690;28;89971;-56
2023/01/28 01:33:34;;;;;;;58.40;50.13;;;13.20;62.40;;;;;;4946470;28;90486;-58
2023/01/28 01:36:00;;;;;;;59.72;51.33;;;13.10;62.40;;;;;;4938790;28;94800;-58
2023/01/28 01:38:26;;;;;;;58.70;49.85;;;13.20;62.40;;;;;;4942682;28;92587;-59
2023/01/28 01:40:56;;;;;;;57.75;50.05;;;13.20;62.40;;;;;;4935245;28;92185;-59
2023/01/28 01:43:22;;;;;;;60.25;50.80;;;13.10;62.50;;;;;;4947465;28;93664;-51
2023/01/28 01:45:55;;;;;;;59.45;51.20;;;13.20;62.50;;;;;;4940278;28;91314;-58
2023/01/28 01:48:34;;;;;;;61.25;51.85;;;13.20;62.20;;;;;;4939262;28;94045;-59
2023/01/28 01:51:08;;;;;;;63.05;53.20;;;13.20;62.30;;;;;;4941613;28;90111;-59
2023/01/28 01:53:42;;;;;;;58.70;50.83;;;13.10;62.50;;;;;;4946144;28;93061;-59
2023/01/28 01:56:12;;;;;;;58.35;50.88;;;13.10;62.50;;;;;;4935251;28;92866;-59
2023/01/28 01:58:41;;;;;;;59.88;51.75;;;13.10;62.20;;;;;;4947040;28;89901;-58
2023/01/28 02:01:07;;;;;;;60.78;52.20;;;13.10;62.30;;;;;;4948337;28;91085;-59
2023/01/28 02:03:50;;;;;;;59.10;51.05;;;13.10;62.40;;;;;;4943041;28;92682;-60
2023/01/28 02:06:16;;;;;;;60.78;50.88;;;13.10;62.30;;;;;;4934291;28;90352;-54
2023/01/28 02:08:44;;;;;;;58.13;49.97;;;13.10;62.50;;;;;;4936831;28;89896;-59
2023/01/28 02:11:10;;;;;;;58.45;50.30;;;13.10;62.40;;;;;;4940620;28;92333;-58
2023/01/28 02:13:44;;;;;;;59.03;50.90;;;13.10;62.60;;;;;;4939524;28;94344;-59
2023/01/28 02:16:11;;;;;;;60.25;50.88;;;13.00;62.70;;;;;;4942281;28;89992;-59
2023/01/28 02:18:37;;;;;;;60.70;51.35;;;13.00;62.70;;;;;;4945442;28;91673;-59
2023/01/28 02:21:31;;;;;;;59.10;50.65;;;13.00;62.60;;;;;;4932611;28;92587;-56
2023/01/28 02:24:00;;;;;;;57.22;49.92;;;13.00;62.80;;;;;;4929442;28;91767;-60
2023/01/28 02:26:58;;;;;;;59.40;51.15;;;13.00;62.80;;;;;;4935919;28;92093;-54
2023/01/28 02:29:34;;;;;;;60.15;50.92;;;13.00;62.80;;;;;;4946603;28;90654;-59
2023/01/28 02:32:16;;;;;;;59.03;50.17;;;13.00;62.90;;;;;;4931591;28;91270;-48
2023/01/28 02:34:50;;;;;;;58.75;50.63;;;13.00;62.80;;;;;;4940289;28;91729;-58
2023/01/28 02:37:34;;;;;;;58.75;50.83;;;13.00;62.80;;;;;;4945928;28;90601;-50
2023/01/28 02:40:13;;;;;;;58.15;50.78;;;13.00;62.50;;;;;;4940048;28;91960;-58
2023/01/28 02:42:40;;;;;;;57.78;50.45;;;13.00;62.70;;;;;;4934877;28;92092;-57
2023/01/28 02:48:19;;;;;;;59.35;51.38;;;13.00;62.70;;;;;;4951757;28;90401;-46
2023/01/28 02:51:04;;;;;;;59.25;50.90;;;13.00;62.60;;;;;;4934474;28;96277;-57
2023/01/28 02:53:50;;;;;;;59.72;50.88;;;13.00;62.70;;;;;;4940813;28;94009;-57
2023/01/28 02:56:51;;;;;;;58.63;50.20;;;13.00;62.70;;;;;;4944356;28;90290;-54
2023/01/28 02:59:35;;;;;;;58.37;50.43;;;13.00;62.80;;;;;;4942137;28;91292;-58
2023/01/28 03:02:08;;;;;;;59.58;51.05;;;13.00;62.70;;;;;;4944009;28;93645;-58
2023/01/28 03:04:43;;;;;;;58.95;50.78;;;13.00;62.50;;;;;;4933723;28;90134;-57
2023/01/28 03:07:11;;;;;;;58.50;50.00;;;13.00;62.60;;;;;;4938691;28;95808;-46
2023/01/28 03:09:39;;;;;;;57.60;50.00;;;13.00;62.70;;;;;;4931389;28;91169;-58
2023/01/28 03:38:17;;;;;;;59.92;51.42;;;13.00;62.50;;;;;;4945025;28;90770;-54
2023/01/28 03:41:01;;;;;;;59.20;51.65;;;13.00;62.50;;;;;;4942812;28;92662;-57
2023/01/28 03:43:31;;;;;;;56.80;48.80;;;13.00;62.50;;;;;;4948348;28;92535;-57
2023/01/28 03:45:57;;;;;;;58.03;50.58;;;13.00;62.50;;;;;;4949322;28;94877;-54
2023/01/28 03:48:24;;;;;;;59.00;50.92;;;12.90;62.50;;;;;;4936081;28;90324;-60
2023/01/28 03:50:51;;;;;;;57.03;49.80;;;12.90;62.60;;;;;;4946749;28;90077;-58
2023/01/28 03:53:17;;;;;;;58.80;50.63;;;12.90;62.50;;;;;;4942891;28;93440;-57
2023/01/28 03:55:45;;;;;;;58.47;50.00;;;12.90;62.50;;;;;;4949617;28;93096;-59
2023/01/28 03:58:12;;;;;;;59.50;51.17;;;12.90;62.70;;;;;;4949693;28;89193;-59
2023/01/28 04:00:40;;;;;;;58.58;50.40;;;12.90;62.60;;;;;;4945728;28;91680;-58
2023/01/28 04:03:17;;;;;;;56.70;49.80;;;12.90;62.40;;;;;;4940479;28;95525;-52
2023/01/28 04:05:46;;;;;;;57.88;50.22;;;12.90;62.50;;;;;;4944195;28;94804;-58
2023/01/28 04:08:12;;;;;;;59.03;51.45;;;12.90;62.50;;;;;;4943122;28;93712;-58
2023/01/28 04:10:39;;;;;;;58.15;50.05;;;12.80;62.80;;;;;;4952904;28;90647;-57
2023/01/28 04:13:06;;;;;;;61.65;52.35;;;12.80;62.80;;;;;;4932988;28;93519;-57
2023/01/28 04:15:31;;;;;;;57.42;50.17;;;12.80;63.00;;;;;;4949588;28;90824;-57
2023/01/28 04:17:59;;;;;;;58.40;50.88;;;12.90;62.80;;;;;;4939587;28;91176;-58
2023/01/28 04:20:25;;;;;;;59.30;51.15;;;12.90;62.50;;;;;;4937296;28;93951;-59
2023/01/28 04:22:51;;;;;;;58.70;50.45;;;12.90;62.50;;;;;;4941317;28;91535;-47
2023/01/28 04:25:16;;;;;;;57.88;49.90;;;12.80;62.60;;;;;;4951393;28;89826;-58
2023/01/28 04:27:42;;;;;;;57.15;49.67;;;12.80;62.60;;;;;;4943833;28;96545;-59
2023/01/28 04:30:08;;;;;;;58.30;50.88;;;12.80;62.80;;;;;;4933399;28;98217;-55
2023/01/28 04:32:34;;;;;;;57.33;50.15;;;12.80;62.80;;;;;;4941264;28;92794;-50
2023/01/28 04:34:59;;;;;;;56.83;49.67;;;12.80;63.40;;;;;;4927654;28;90273;-57
2023/01/28 04:37:25;;;;;;;59.25;51.78;;;12.80;62.80;;;;;;4946881;28;93661;-58
2023/01/28 04:39:51;;;;;;;57.00;49.88;;;12.80;62.90;;;;;;4938683;28;91786;-58
2023/01/28 04:42:16;;;;;;;57.50;49.78;;;12.80;62.70;;;;;;4943713;28;91014;-58
2023/01/28 04:44:42;;;;;;;56.63;49.28;;;12.80;62.50;;;;;;4944224;28;92938;-59
2023/01/28 04:47:07;;;;;;;58.80;50.65;;;12.80;62.60;;;;;;4932963;28;94830;-58
2023/01/28 04:49:33;;;;;;;57.30;49.55;;;12.80;62.70;;;;;;4938823;28;91108;-57
2023/01/28 04:51:59;;;;;;;57.67;50.00;;;12.80;62.80;;;;;;4948836;28;92395;-57
2023/01/28 04:54:24;;;;;;;57.92;50.30;;;12.70;62.80;;;;;;4942831;28;96171;-58
2023/01/28 04:56:50;;;;;;;57.05;50.25;;;12.80;62.90;;;;;;4942228;28;94001;-57
2023/01/28 04:59:16;;;;;;;58.03;49.72;;;12.70;62.90;;;;;;4945362;28;91183;-53
2023/01/28 05:01:41;;;;;;;55.72;48.97;;;12.70;62.80;;;;;;4942481;28;95015;-51
2023/01/28 05:04:08;;;;;;;57.28;49.35;;;12.80;62.80;;;;;;4937405;28;91441;-58
2023/01/28 05:06:34;;;;;;;56.00;48.97;;;12.70;62.70;;;;;;4953510;28;90122;-58
2023/01/28 05:09:00;;;;;;;57.55;49.72;;;12.70;62.90;;;;;;4941902;28;97063;-54
2023/01/28 05:11:25;;;;;;;54.45;48.05;;;12.70;63.00;;;;;;4939728;28;91335;-58
2023/01/28 05:13:52;;;;;;;55.92;49.17;;;12.80;63.20;;;;;;4944568;28;91463;-49
2023/01/28 05:16:18;;;;;;;58.58;50.45;;;12.80;63.00;;;;;;4946402;28;91304;-51
2023/01/28 05:18:46;;;;;;;55.97;48.92;;;12.70;62.80;;;;;;4944314;28;92875;-60
2023/01/28 05:21:12;;;;;;;56.17;49.22;;;12.80;62.90;;;;;;4937132;28;91905;-57
2023/01/28 05:23:38;;;;;;;57.92;50.45;;;12.70;62.80;;;;;;4934795;28;95742;-58
2023/01/28 05:26:04;;;;;;;56.40;49.53;;;12.70;62.80;;;;;;4933466;28;92342;-59
2023/01/28 05:28:29;;;;;;;56.22;49.65;;;12.70;62.80;;;;;;4946548;28;91535;-59
2023/01/28 05:30:55;;;;;;;57.50;49.65;;;12.70;62.90;;;;;;4935021;28;95450;-49
2023/01/28 05:33:21;;;;;;;56.30;49.10;;;12.60;63.10;;;;;;4940247;28;91304;-57
2023/01/28 05:35:48;;;;;;;55.78;48.92;;;12.60;63.20;;;;;;4933729;28;93109;-54
2023/01/28 05:38:14;;;;;;;56.78;49.85;;;12.60;63.00;;;;;;4937926;28;93290;-59
2023/01/28 05:40:39;;;;;;;56.08;49.20;;;12.70;62.90;;;;;;4949340;28;93664;-57
2023/01/28 05:43:05;;;;;;;55.45;48.70;;;12.60;63.10;;;;;;4939187;28;95142;-58
2023/01/28 05:45:31;;;;;;;58.75;50.50;;;12.60;63.10;;;;;;4936656;28;94943;-56
2023/01/28 05:47:56;;;;;;;56.85;49.53;;;12.60;63.00;;;;;;4942207;28;92156;-58
2023/01/28 05:50:22;;;;;;;57.15;50.45;;;12.70;63.10;;;;;;4951198;28;89893;-58
2023/01/28 05:52:48;;;;;;;57.40;49.25;;;12.60;62.90;;;;;;4942165;28;90102;-59
2023/01/28 05:55:13;;;;;;;58.53;49.97;;;12.60;63.00;;;;;;4938400;28;90712;-57
2023/01/28 05:57:39;;;;;;;57.40;50.45;;;12.70;63.70;;;;;;4942387;28;91215;-58
2023/01/28 06:00:05;;;;;;;58.08;50.33;;;12.60;62.80;;;;;;4939268;28;90874;-59
2023/01/28 06:02:31;;;;;;;58.83;50.30;;;12.60;62.80;;;;;;4951767;28;90151;-58
2023/01/28 06:04:57;;;;;;;56.50;49.50;;;12.70;62.80;;;;;;4929788;28;93908;-57
2023/01/28 06:07:22;;;;;;;56.22;49.10;;;12.70;63.00;;;;;;4938002;28;96693;-59
2023/01/28 06:09:48;;;;;;;54.97;48.92;;;12.70;63.00;;;;;;4944654;28;91247;-54
2023/01/28 06:12:14;;;;;;;57.33;50.10;;;12.70;63.10;;;;;;4943610;28;91032;-54
2023/01/28 06:14:41;;;;;;;59.40;51.20;;;12.60;62.70;;;;;;4942229;28;90162;-58
2023/01/28 06:17:07;;;;;;;58.25;50.58;;;12.70;62.90;;;;;;4937416;28;95445;-59
2023/01/28 06:19:33;;;;;;;58.90;51.47;;;12.70;62.90;;;;;;4944055;28;90235;-58
2023/01/28 06:21:58;;;;;;;55.85;49.67;;;12.60;62.90;;;;;;4939369;28;90764;-57
2023/01/28 06:24:24;;;;;;;54.33;48.28;;;12.60;63.00;;;;;;4935437;28;91083;-59
2023/01/28 06:26:49;;;;;;;56.90;50.60;;;12.60;63.00;;;;;;4937586;28;91080;-57
2023/01/28 06:29:15;;;;;;;57.83;49.83;;;12.60;63.00;;;;;;4941718;28;93448;-51
2023/01/28 06:31:41;;;;;;;56.25;49.72;;;12.70;63.10;;;;;;4931394;28;96373;-58
2023/01/28 06:34:08;;;;;;;56.42;49.50;;;12.60;62.90;;;;;;4934572;28;94766;-47
2023/01/28 06:36:36;;;;;;;57.53;49.83;;;12.60;63.00;;;;;;4943315;28;92447;-56
2023/01/28 06:39:03;;;;;;;57.85;50.75;;;12.60;62.80;;;;;;4933416;28;91930;-58
2023/01/28 06:41:28;;;;;;;58.17;50.63;;;12.60;62.70;;;;;;4944217;28;90411;-59
2023/01/28 06:43:54;;;;;;;57.28;50.03;;;12.70;62.70;;;;;;4943573;28;92506;-59
2023/01/28 06:46:20;;;;;;;58.45;51.22;;;12.60;62.80;;;;;;4943779;28;94106;-59
2023/01/28 06:48:45;;;;;;;56.80;49.85;;;12.60;62.70;;;;;;4939986;28;94144;-50
2023/01/28 06:51:11;;;;;;;57.92;50.28;;;12.60;62.80;;;;;;4932982;28;94172;-59
2023/01/28 06:53:36;;;;;;;56.85;50.28;;;12.60;62.80;;;;;;4932914;28;90143;-59
2023/01/28 06:56:02;;;;;;;57.53;50.22;;;12.60;62.80;;;;;;4940343;28;94989;-58
2023/01/28 06:58:28;;;;;;;58.70;50.97;;;12.60;62.70;;;;;;4955621;28;92490;-58
2023/01/28 07:00:54;;;;;;;55.92;49.15;;;12.60;62.80;;;;;;4940305;28;90276;-48
2023/01/28 07:03:20;;;;;;;57.05;49.90;;;12.70;62.70;;;;;;4941925;28;92995;-58
2023/01/28 07:05:45;;;;;;;57.60;50.63;;;12.70;62.40;;;;;;4942514;28;90609;-56
2023/01/28 07:08:11;;;;;;;57.22;50.00;;;12.60;62.60;;;;;;4936678;28;92330;-58
2023/01/28 07:10:36;;;;;;;56.28;49.13;;;12.60;62.40;;;;;;4943341;28;92898;-59
2023/01/28 07:13:02;;;;;;;58.53;51.03;;;12.60;62.70;;;;;;4939415;28;88840;-52
2023/01/28 07:15:28;;;;;;;58.83;51.20;;;12.60;62.80;;;;;;4936829;28;91518;-58
2023/01/28 07:17:54;;;;;;;57.67;50.90;;;12.70;62.60;;;;;;4941724;28;90948;-58
2023/01/28 07:20:21;;;;;;;58.67;50.72;;;12.60;62.70;;;;;;4931750;28;90566;-48
2023/01/28 07:22:46;;;;;;;58.25;51.35;;;12.60;62.80;;;;;;4948018;28;92710;-54
2023/01/28 07:25:13;;;;;;;58.90;51.00;;;12.60;62.90;;;;;;4942182;28;90651;-59
2023/01/28 07:27:44;;;;;;;57.00;50.03;;;12.60;63.40;;;;;;4937310;28;92406;-59
2023/01/28 07:30:10;;;;;;;59.70;51.28;;;12.60;62.70;;;;;;4921878;28;92731;-56
2023/01/28 07:32:36;;;;;;;57.28;50.58;;;12.60;62.70;;;;;;4937055;28;92882;-59
2023/01/28 07:35:01;;;;;;;57.13;50.20;;;12.60;62.70;;;;;;4945533;28;92678;-52
2023/01/28 07:37:27;;;;;;;58.25;50.97;;;12.60;62.90;;;;;;4938484;28;90906;-58
2023/01/28 07:39:52;;;;;;;55.30;48.75;;;12.50;62.90;;;;;;4939449;28;93139;-58
2023/01/28 07:42:18;;;;;;;56.78;50.00;;;12.60;62.80;;;;;;4944858;28;93118;-59
2023/01/28 07:44:44;;;;;;;59.00;50.78;;;12.50;62.80;;;;;;4938327;28;94150;-59
2023/01/28 07:47:10;;;;;;;56.63;49.60;;;12.50;62.70;;;;;;4933589;28;92240;-51
2023/01/28 07:49:38;;;;;;;56.60;49.90;;;12.50;63.00;;;;;;4938264;28;91852;-59
2023/01/28 07:52:04;;;;;;;57.08;49.92;;;12.50;62.80;;;;;;4938735;28;90178;-52
2023/01/28 07:54:30;;;;;;;57.47;50.42;;;12.50;63.00;;;;;;4949031;28;91934;-58
2023/01/28 07:56:55;;;;;;;56.75;49.95;;;12.50;62.90;;;;;;4930243;28;93272;-57
2023/01/28 07:59:21;;;;;;;56.53;49.83;;;12.50;62.60;;;;;;4946131;28;95647;-57
2023/01/28 08:01:47;;;;;;;59.15;51.33;;;12.50;62.90;;;;;;4941685;28;89455;-52
2023/01/28 08:04:12;;;;;;;57.85;50.50;;;12.50;62.90;;;;;;4935755;28;93126;-55
2023/01/28 08:06:38;;;;;;;58.13;50.55;;;12.50;62.90;;;;;;4946676;28;89921;-54
2023/01/28 08:09:06;;;;;;;58.70;51.15;;;12.50;63.00;;;;;;4930672;28;90727;-51
2023/01/28 08:11:41;;;;;;;59.85;51.60;;;12.50;62.90;;;;;;4929793;28;98177;-58
2023/01/28 08:14:08;;;;;;;56.53;49.63;;;12.50;62.80;;;;;;4944700;28;92113;-59
2023/01/28 08:16:34;;;;;;;58.55;50.53;;;12.50;62.90;;;;;;4937288;28;95582;-58
2023/01/28 08:19:00;;;;;;;56.40;49.88;;;12.50;62.80;;;;;;4936240;28;89970;-54
2023/01/28 08:21:25;;;;;;;55.72;49.45;;;12.50;62.70;;;;;;4941126;28;91796;-59
2023/01/28 08:23:51;;;;;;;58.15;51.70;;;12.40;62.80;;;;;;4942948;28;91215;-53
2023/01/28 08:26:17;;;;;;;56.50;50.03;;;12.50;62.90;;;;;;4934079;28;89584;-50
2023/01/28 08:28:42;;;;;;;59.30;51.65;;;12.50;62.70;;;;;;4977130;28;92267;-59
2023/01/28 08:31:08;;;;;;;56.60;49.85;;;12.50;62.80;;;;;;4931596;28;94624;-57
2023/01/28 08:33:33;;;;;;;58.33;50.83;;;12.50;62.80;;;;;;4930587;28;96061;-57
2023/01/28 08:36:02;;;;;;;56.28;49.67;;;12.50;62.60;;;;;;4936459;28;91642;-55
2023/01/28 08:38:28;;;;;;;58.20;51.45;;;12.60;62.50;;;;;;4947580;28;91790;-55
2023/01/28 08:40:55;;;;;;;57.60;50.17;;;12.50;62.50;;;;;;4945484;28;92276;-54
2023/01/28 08:43:21;;;;;;;56.38;49.60;;;12.50;62.60;;;;;;4941513;28;94560;-57
2023/01/28 08:45:46;;;;;;;57.63;50.70;;;12.60;62.50;;;;;;4933585;28;92605;-59
2023/01/28 08:48:15;;;;;;;60.20;51.85;;;12.60;62.30;;;;;;4932581;28;92834;-59
2023/01/28 08:50:41;;;;;;;57.40;50.25;;;12.60;62.40;;;;;;4952715;28;89296;-58
2023/01/28 08:53:16;;;;;;;57.15;50.45;;;12.60;62.40;;;;;;4946366;28;95582;-58
2023/01/28 08:55:41;;;;;;;60.13;51.53;;;12.60;62.30;;;;;;4944808;28;91067;-58
2023/01/28 08:58:11;;;;;;;59.05;51.42;;;12.50;62.30;;;;;;4936732;28;91249;-59
2023/01/28 09:00:37;;;;;;;59.55;51.90;;;12.60;62.40;;;;;;4943505;28;91744;-59
2023/01/28 09:03:04;;;;;;;59.13;51.67;;;12.50;62.50;;;;;;4929593;28;94090;-58
2023/01/28 09:05:31;;;;;;;59.30;51.78;;;12.50;62.40;;;;;;4945380;28;91683;-58
2023/01/28 09:08:01;;;;;;;62.20;51.80;;;12.50;62.50;;;;;;4938772;28;91652;-59
2023/01/28 09:10:26;;;;;;;56.42;49.53;;;12.40;62.40;;;;;;4937749;28;90864;-48
2023/01/28 09:12:52;;;;;;;59.28;51.72;;;12.50;62.80;;;;;;4936086;28;94443;-57
2023/01/28 09:15:18;;;;;;;57.92;50.80;;;12.50;62.80;;;;;;4941091;28;91395;-58
2023/01/28 09:17:43;;;;;;;59.13;52.28;;;12.50;62.60;;;;;;4943134;28;90015;-59
2023/01/28 09:20:11;;;;;;;59.05;51.70;;;12.50;62.70;;;;;;4945549;28;92439;-59
2023/01/28 09:22:36;;;;;;;57.47;50.15;;;12.50;62.40;;;;;;4934646;28;93123;-57
2023/01/28 09:25:02;;;;;;;58.95;51.20;;;12.50;62.50;;;;;;4937940;28;91632;-55
2023/01/28 09:27:28;;;;;;;59.58;51.55;;;12.50;62.60;;;;;;4940270;28;89974;-49
2023/01/28 09:29:53;;;;;;;59.55;51.50;;;12.50;62.60;;;;;;4932301;28;91968;-53
2023/01/28 09:32:20;;;;;;;58.90;51.22;;;12.50;62.30;;;;;;4934812;28;95017;-58
2023/01/28 09:34:45;;;;;;;55.15;48.92;;;12.60;62.30;;;;;;4948567;28;90066;-55
2023/01/28 09:37:11;;;;;;;55.70;49.03;;;12.60;62.30;;;;;;4948631;28;94017;-58
2023/01/28 09:39:37;;;;;;;58.10;50.53;;;12.80;62.10;;;;;;4945496;28;89185;-58
2023/01/28 09:42:18;;;;;;;58.40;50.67;;;12.80;61.70;;;;;;4930995;28;92383;-59
2023/01/28 09:45:08;;;;;;;60.10;51.92;;;12.80;61.60;;;;;;4942699;28;92313;-57
2023/01/28 09:47:40;;;;;;;57.42;50.38;;;12.80;61.60;;;;;;4949826;28;93137;-57
2023/01/28 09:50:14;;;;;;;58.03;50.65;;;12.80;61.50;;;;;;4932499;28;90477;-51
2023/01/28 09:52:41;;;;;;;60.85;52.15;;;13.00;61.00;;;;;;4945550;28;92982;-58
2023/01/28 09:55:15;;;;;;;57.63;50.40;;;13.00;60.90;;;;;;4943729;28;92160;-59
2023/01/28 09:57:49;;;;;;;57.47;49.92;;;13.00;60.90;;;;;;4939047;28;90053;-58
2023/01/28 10:00:30;;;;;;;57.92;50.55;;;12.90;61.60;;;;;;4933845;28;93161;-53
2023/01/28 10:03:17;;;;;;;57.97;50.72;;;13.00;60.80;;;;;;4943773;28;94521;-52
2023/01/28 10:05:51;;;;;;;58.20;50.67;;;13.00;60.80;;;;;;4941651;28;90250;-58
2023/01/28 10:08:28;;;;;;;58.50;50.50;;;13.10;60.60;;;;;;4948595;28;89960;-58
2023/01/28 10:11:28;;;;;;;58.90;50.75;;;13.10;60.60;;;;;;4940641;28;94575;-59
2023/01/28 10:14:05;;;;;;;57.33;50.28;;;13.10;60.40;;;;;;4945145;28;93090;-55
2023/01/28 10:16:39;;;;;;;57.58;49.90;;;13.10;60.30;;;;;;4931397;28;94068;-59
2023/01/28 10:19:26;;;;;;;58.45;50.75;;;13.20;60.30;;;;;;4938802;28;93522;-58
2023/01/28 10:21:55;;;;;;;57.42;50.17;;;13.20;60.10;;;;;;4937539;28;92267;-57
2023/01/28 10:24:43;;;;;;;56.80;49.35;;;13.20;60.00;;;;;;4931666;28;92009;-59
2023/01/28 10:27:18;;;;;;;56.65;49.80;;;13.30;59.90;;;;;;4934108;28;94989;-57
2023/01/28 10:29:45;;;;;;;58.72;50.55;;;13.30;59.80;;;;;;4946188;28;89903;-58
2023/01/28 10:32:27;;;;;;;59.70;51.63;;;13.30;59.90;;;;;;4937033;28;88943;-59
2023/01/28 10:34:53;;;;;;;57.60;50.28;;;13.40;59.60;;;;;;4937858;28;91522;-58
2023/01/28 10:37:20;;;;;;;57.58;49.65;;;13.40;59.70;;;;;;4938113;28;90924;-58
2023/01/28 10:39:46;;;;;;;57.22;49.28;;;13.50;59.50;;;;;;4941738;28;93431;-58
2023/01/28 10:42:31;;;;;;;58.25;50.10;;;13.50;59.50;;;;;;4948597;28;90964;-54
2023/01/28 10:45:15;;;;;;;59.05;51.15;;;13.50;59.40;;;;;;4937891;28;91476;-50
2023/01/28 10:47:47;;;;;;;57.17;50.15;;;13.40;59.50;;;;;;4938207;28;92094;-57
2023/01/28 10:50:24;;;;;;;56.35;49.53;;;13.40;59.30;;;;;;4939189;28;89882;-52
2023/01/28 10:53:05;;;;;;;56.63;49.13;;;13.50;59.40;;;;;;4944164;28;89768;-58
2023/01/28 10:55:55;;;;;;;59.45;49.85;;;13.60;59.30;;;;;;4939065;28;94844;-55
2023/01/28 10:58:24;;;;;;;58.67;50.42;;;13.50;59.10;;;;;;4936692;28;91003;-59
2023/01/28 11:00:55;;;;;;;57.78;50.25;;;13.50;59.10;;;;;;4937333;28;95065;-57
2023/01/28 11:03:23;;;;;;;57.70;49.90;;;13.60;59.10;;;;;;4939130;28;93994;-57
2023/01/28 11:05:53;;;;;;;56.90;48.88;;;13.60;58.90;;;;;;4939410;28;92430;-57
2023/01/28 11:08:24;;;;;;;59.33;50.17;;;13.60;59.10;;;;;;4933387;28;92452;-52
2023/01/28 11:10:52;;;;;;;57.10;49.38;;;13.60;59.20;;;;;;4933830;28;95114;-58
2023/01/28 11:13:20;;;;;;;57.97;49.70;;;13.60;59.20;;;;;;4936056;28;92706;-58
2023/01/28 11:15:54;;;;;;;56.75;49.47;;;13.60;59.10;;;;;;4934282;28;92055;-55
2023/01/28 11:18:28;;;;;;;55.75;48.15;;;13.50;59.20;;;;;;4936351;28;95574;-58
2023/01/28 11:21:01;;;;;;;55.40;48.20;;;13.60;59.20;;;;;;4961597;28;90324;-59
2023/01/28 11:23:34;;;;;;;57.70;48.88;;;13.70;59.00;;;;;;4944855;28;90212;-56
2023/01/28 11:26:13;;;;;;;55.70;48.75;;;13.60;59.20;;;;;;4948753;28;90985;-56
2023/01/28 11:28:41;;;;;;;56.40;48.97;;;13.60;59.30;;;;;;4936113;28;94154;-56
2023/01/28 11:31:11;;;;;;;57.70;49.67;;;13.60;59.10;;;;;;4931863;28;95351;-59
2023/01/28 11:33:41;;;;;;;56.58;48.75;;;13.50;59.30;;;;;;4932520;28;93167;-54
2023/01/28 11:36:36;;;;;;;56.73;48.57;;;13.50;59.40;;;;;;4933753;28;92313;-58
2023/01/28 11:39:24;;;;;;;57.55;49.53;;;13.50;59.40;;;;;;4958862;28;91067;-59
2023/01/28 11:41:51;;;;;;;55.88;48.72;;;13.50;59.40;;;;;;4941969;28;90115;-51
2023/01/28 11:44:25;;;;;;;55.92;48.58;;;13.40;59.50;;;;;;4942028;28;90394;-58
2023/01/28 11:46:50;;;;;;;55.88;48.42;;;13.50;59.40;;;;;;4942089;28;90148;-58
2023/01/28 11:49:37;;;;;;;55.95;48.83;;;13.50;59.30;;;;;;4927143;28;90978;-55
2023/01/28 11:52:28;;;;;;;56.63;48.88;;;13.60;59.20;;;;;;4944967;28;93648;-60
2023/01/28 11:55:09;;;;;;;55.42;48.08;;;13.50;59.40;;;;;;4941445;28;92704;-58
2023/01/28 11:57:48;;;;;;;55.58;48.33;;;13.50;59.50;;;;;;4935131;28;94629;-52
2023/01/28 12:00:30;;;;;;;55.88;48.38;;;13.40;59.50;;;;;;4946942;28;91299;-59
2023/01/28 12:03:14;;;;;;;55.05;48.05;;;13.50;59.30;;;;;;4945804;28;91794;-57
2023/01/28 12:05:56;;;;;;;55.50;48.20;;;13.50;59.50;;;;;;4945724;28;93532;-50
2023/01/28 12:08:33;;;;;;;;;;;13.50;59.40;;;;;;4939630;28;94136;-58
2023/01/28 12:15:01;;;;;;;55.25;47.85;;;13.70;59.10;;;;;;4963131;28;90427;-58
2023/01/28 12:17:48;;;;;;;54.72;48.30;;;13.60;59.00;;;;;;4944091;28;91714;-59
2023/01/28 12:20:30;;;;;;;55.05;47.85;;;13.60;59.00;;;;;;4947571;28;90249;-58
2023/01/28 12:23:05;;;;;;;55.20;47.92;;;13.60;59.00;;;;;;4942920;28;93172;-58
2023/01/28 12:25:39;;;;;;;54.15;47.67;;;13.70;59.00;;;;;;4948526;28;94819;-59
2023/01/28 12:28:30;;;;;;;55.92;48.15;;;13.70;59.00;;;;;;4943516;28;96929;-58
2023/01/28 12:31:37;;;;;;;55.00;47.33;;;13.60;59.00;;;;;;4941545;28;95438;-55
2023/01/28 12:34:14;;;;;;;54.53;47.35;;;13.60;58.90;;;;;;4935700;28;91711;-57
2023/01/28 12:37:07;;;;;;;55.30;47.85;;;13.60;59.10;;;;;;4948653;28;92153;-57
2023/01/28 12:39:46;;;;;;;54.63;47.78;;;13.60;59.10;;;;;;4937195;28;92774;-56
2023/01/28 12:42:14;;;;;;;56.08;48.40;;;13.70;59.00;;;;;;4933151;28;90158;-56
2023/01/28 12:44:51;;;;;;;54.90;47.95;;;13.70;58.90;;;;;;4947371;28;94661;-57
2023/01/28 12:47:25;;;;;;;55.78;47.95;;;13.70;58.80;;;;;;4946638;28;91814;-57
2023/01/28 12:50:17;;;;;;;54.85;47.58;;;13.80;58.90;;;;;;4927569;28;95620;-57
2023/01/28 12:52:48;;;;;;;56.13;48.33;;;13.80;58.70;;;;;;4937246;28;92290;-58
2023/01/28 12:55:39;;;;;;;55.10;47.73;;;13.80;58.70;;;;;;4946728;28;91468;-58
2023/01/28 12:58:29;;;;;;;54.28;47.58;;;13.70;58.70;;;;;;4944913;28;90390;-58
2023/01/28 13:01:01;;;;;;;56.40;48.00;;;13.80;58.80;;;;;;4948489;28;93041;-58
2023/01/28 13:03:34;;;;;;;55.35;47.75;;;13.80;58.60;;;;;;4939666;28;96127;-58
2023/01/28 13:06:23;;;;;;;55.58;48.28;;;13.80;58.70;;;;;;4927020;28;91313;-56
2023/01/28 13:08:50;;;;;;;55.28;47.80;;;13.80;58.70;;;;;;4935776;28;91485;-58
2023/01/28 13:11:17;;;;;;;55.53;48.10;;;13.70;58.90;;;;;;4952168;28;89114;-57
2023/01/28 13:13:44;;;;;;;55.63;48.33;;;13.70;58.90;;;;;;4946036;28;90006;-58
2023/01/28 13:16:11;;;;;;;57.03;48.50;;;13.70;58.80;;;;;;4932212;28;91149;-58